Franklin, Kentucky
Current Conditions -  °F | °C
As of 5:11 AM on Thursday 23 Oct 2014 (Local Time) from KBWG Reporting Station
Haze Haze  
Wind Chill: 38°   Ceiling: Unl
Heat Index: 38°   Visibility: 2mi
Dew Point: 35°   Wind: 0mph
Humidity: 89%   Direction: NA
Pressure: 30.26"   Gusts: NA
Location:  36.72°N, 86.58°W
Report Text: KBWG 231011Z AUTO 00000KT 2SM BR CLR 03/02 A3026 RMK AO2 VIS 1V3 T00330017
Loading
Personal Weather Stations






























Interactive Weather Map
Tropical Storm Tracking
New forecast layout! Learn more

10-Day Weather Forecast

Advertisements
Track Severe Weather on mobile